x

Gulf Of Maine - 78 Nm East Of Portsmouth, Nh (44005) Wave Buoy

2:50am - Thu 18th Sep 2014 All times are EDT. -4 hours from GMT.

  • Sig Wave height 3.9ft
  • Peak Period 12s
  • Average Period 7s
  • Wind
    11mph, 13mph gusts
  • Sea Temp 63°f
  • Air Temp 64°f
  • Sea Pressure 1012.3mb
  • Gulf Of Maine - 78 Nm East Of Portsmouth, Nh
  • Gulf Of Maine - 78 Nm East Of Portsmouth, Nh

More Historic Weather Station data

Upgrade to MSW Pro to gain access to the past 30 days of data for over 8000 Wavebouys and Weather Stations around the globe.

Join Pro

Comparision Forecast

View Surf forecast
   
Thu 09/18 2:50am 4ft 12s 7s 11 13 mph 1012.3mb 63f 64f
1:50am 3.5ft 13s 7s 13
mph
1013mb 64f 64f
12:50am 3.5ft 14s 6s 13 16 mph 1013.3mb 64f 64f
Wed 09/17 11:50pm 4.5ft 14s 8s 13 16 mph 1013.6mb 64f 64f
10:50pm 4.5ft 13s 8s 13 16 mph 1013.9mb 64f 64f
9:50pm 4ft 12s 8s 13 16 mph 1014.1mb 64f 64f
8:50pm 4.5ft 11s 8s 13 16 mph 1014.5mb 64f 63f
7:50pm 4.5ft 14s 8s 13 16 mph 1014.3mb 64f 63f
6:50pm 4ft 13s 9s 11 13 mph 1013.9mb 64f 63f
5:50pm 3.5ft 13s 10s 11 13 mph 1013.8mb 64f 64f
4:50pm 3.5ft 13s 10s 9 13 mph 1014mb 64f 63f
3:50pm 3.5ft 13s 10s 9 11 mph 1014.1mb 64f 64f
2:50pm 3ft 14s 10s 9 11 mph 1014.3mb 64f 63f
1:50pm 3ft 13s 10s 7 9 mph 1014.8mb 64f 62f
12:50pm 2.5ft 14s 10s 4 7 mph 1015.5mb 64f 61f
11:50am 3ft 13s 10s 2 4 mph 1015.6mb 63f 61f
10:50am 3ft 15s 10s 4
mph
1015.8mb 63f 60f
9:50am 2.5ft 13s 9s 2 4 mph 1015.8mb 62f 60f
8:50am 3ft 15s 9s 2
mph
1015.6mb 62f 61f
7:50am 2.5ft 12s 7s  -  2 mph 1015.4mb 62f 61f
6:50am 2.5ft 12s 7s 2 4 mph 1014.9mb 63f 60f
5:50am 2ft 13s 5s 7 9 mph 1014.6mb 63f 60f
4:50am 2ft 13s 4s 11 13 mph 1014.2mb 64f 60f
3:50am  -   -   -  16 18 mph 1013.8mb 64f 61f
1:50am  -   -   -  16
mph
- - 62f
12:50am 2ft 13s 4s 13 16 mph 1014.6mb 63f 62f
Tue 09/16 11:50pm 2ft 7s 4s 13 16 mph 1014.5mb 63f 61f
10:50pm 2ft 13s 4s 11 13 mph 1014.6mb 63f 61f
9:50pm 2.5ft 13s 4s 13 16 mph 1014.5mb 63f 61f
8:50pm 2ft 11s 4s 13 18 mph 1014.2mb 62f 61f
7:50pm 2ft 11s 4s 13 16 mph 1013.9mb 62f 62f
6:50pm 1.6ft 12s 4s 11 13 mph 1013.9mb 63f 62f
5:50pm 1.6ft 11s 4s 11
mph
1013.8mb 63f 61f
4:50pm 1.6ft 12s 5s 11
mph
1013.8mb 64f 62f
3:50pm 1.6ft 12s 5s 11 13 mph 1014mb 64f 62f
2:50pm 1.6ft 7s 5s 11 13 mph 1014.4mb 64f 62f
1:50pm 1.6ft 8s 5s 11 13 mph 1014.7mb 64f 62f
12:50pm 1.6ft 13s 5s 9 11 mph 1015.9mb 64f 62f
11:50am 1.6ft 8s 5s 7 9 mph 1016mb 63f 61f
10:50am 1.6ft 13s 4s 9 11 mph 1016.4mb 63f 61f
9:50am 2ft 13s 4s 9 11 mph 1016.8mb 64f 61f
8:50am 1.6ft 8s 4s 11 13 mph 1017.1mb 64f 61f
7:50am 1.6ft 8s 4s 11 16 mph 1017.1mb 63f 61f
6:50am 1.6ft 11s 4s 13 16 mph 1017.5mb 63f 60f
5:50am 1.6ft 12s 5s 13 16 mph 1017.2mb 63f 60f
4:50am 1.6ft 8s 6s 11 16 mph 1016.9mb 63f 60f
3:50am 1.6ft 7s 6s 9 11 mph 1018mb 62f 60f
2:50am 1.6ft 8s 7s 7 9 mph 1018.4mb 63f 60f
1:50am 1.6ft 8s 7s 9 11 mph 1019.1mb 62f 60f
12:50am 1.6ft 7s 7s 7 9 mph 1018.8mb 63f 59f
Mon 09/15 11:50pm 1.3ft 13s 7s 4
mph
1019.3mb 63f 59f
10:50pm 1.3ft 7s 7s 4 7 mph 1019.8mb 63f 59f
9:50pm 1.3ft 8s 7s 4 7 mph 1020.1mb 63f 58f
8:50pm 1.3ft 8s 7s 4
mph
1020.3mb 63f 58f
7:50pm 1.3ft 8s 7s 4 7 mph 1020mb 64f 58f
6:50pm 1.3ft 8s 5s 4 7 mph 1020mb 64f 57f
5:50pm 1.3ft 8s 5s 4 7 mph 1020.1mb 64f 57f
4:50pm 1.3ft 13s 5s 7 11 mph 1020.1mb 64f 57f
3:50pm 1.3ft 9s 5s 9 13 mph 1020.6mb 64f 55f
2:50pm  -   -   -  7 11 mph 1020.7mb 64f 54f
1:50pm 1.6ft 7s 5s 4 9 mph 1021.2mb 64f 54f
12:50pm 1.6ft 13s 5s 7 11 mph 1021.8mb 64f 53f
11:50am 1.6ft 7s 5s 11 13 mph 1022.1mb 64f 53f
10:50am 1.6ft 7s 5s 7 11 mph 1022.8mb 64f 53f
9:50am 1.6ft 7s 5s 7
mph
1023mb 63f 54f
8:50am 1.6ft 7s 4s 7 9 mph 1023mb 63f 54f
7:50am 2ft 8s 5s 9 11 mph 1023.1mb 63f 54f
6:50am 2ft 4s 4s 7 9 mph 1023.1mb 63f 55f
5:50am 2ft 4s 4s 7 9 mph 1022.8mb 63f 55f
4:50am 2.5ft 4s 4s 9 11 mph 1022.5mb 63f 54f
3:50am 2.5ft 4s 4s 11 13 mph 1022.2mb 63f 54f
2:50am 3ft 4s 4s 13 18 mph 1021.9mb 64f 54f
1:50am 3ft 4s 4s 13 16 mph 1022.1mb 64f 55f
12:50am 2.5ft 4s 4s 18 20 mph 1022.1mb 64f 55f
Sun 09/14 11:50pm 2.5ft 3s 4s 18 20 mph 1022mb 64f 56f
10:50pm 2.5ft 3s 4s 20 22 mph 1022.3mb 64f 56f
9:50pm 2ft 8s 4s 18 20 mph 1022.1mb 64f 59f
8:50pm 2ft 7s 4s 16 18 mph 1022.2mb 64f 60f
7:50pm 2ft 7s 4s 13 16 mph 1022mb 64f 60f
6:50pm 2.5ft 6s 4s 13 16 mph 1021.4mb 64f 59f
5:50pm 2.5ft 4s 4s 11 13 mph 1021.5mb 63f 59f
4:50pm  -   -   -  13
mph
- - 58f
3:50pm  -   -   -  13 18 mph 1020.8mb 64f 58f
2:50pm 3.5ft 5s 4s 18 20 mph 1020.3mb 64f 57f
1:50pm 3.5ft 5s 4s 18 22 mph 1020.8mb 64f 55f
12:50pm 4ft 5s 4s 18 20 mph 1021.1mb 64f 55f
11:50am 4.5ft 5s 4s 22 27 mph 1020.6mb 64f 54f
10:50am 4.5ft 5s 4s 22 27 mph 1021.1mb 64f 55f
9:50am 4.5ft 5s 4s 22 27 mph 1021.1mb 64f 55f
8:50am 4.5ft 4s 4s 25 29 mph 1020.6mb 65f 56f